Pagrindinis puslapis
METAR-TAF:

METAR-TAF

Oro uostai :

Rosarijas, Argentina

platuma: 32-55S, ilguma: 060-47W, Aukštis: 25 m

Dabartinis oras

Ataskaita buvo paskelbta 58 minutes, ne 04:00 UTC
Vėjas 6 kt iš Šiaurės Rytų
Temperatūra 14°C
Drėgmė 82%
Slėgis 1013 hPa
Matomumas: 9000 m

METAR: SAAR 290400Z 05006KT 9000 NSC 14/11 Q1013

Laikas: 01:58 (04:58 UTC)

Prognozė

Ataskaita buvo paskelbta 5 valandos ir 58 minutes, ne 23:00 UTC
Prognozė galioja nuo 29 metu 00 UTC su 29 metu 24 UTC
Vėjas 3 kt iš Šiaurės Rytų
Matomumas: 9000 m
Tapsmas
nuo 29 metu 08 UTC su 28 metu 10 UTC
Vėjas 3 kt nuo kintamojo kryptimis
Matomumas: 3000 m
rūkana
Tapsmas
nuo 29 metu 12 UTC su 29 metu 14 UTC
Vėjas 5 kt iš Šiaurės Rytų
Matomumas 10 km arba daugiau
nėra debesų žemiau 1500 m ir nėra kamuolinių lietaus debesų

TAF: SAAR 282300Z 2900/2924 05003KT 9000 NSC TX26/2918Z TN08/2911Z BECMG 2908/2810 VRB03KT 3000 BR BECMG 2912/2914 05005KT CAVOK

Orai ataskaitas ir orų prognozės (METAR, TAF).

turimą stotys yra geltonos ir raudonos taškus žemėlapyje.

Perkelti pele per norėdami pamatyti stoties vardą.

Tada spustelėkite, norėdami matyti oro stebėjimo ir prognozės.

Norėdami pakeisti žemėlapį: spustelėkite ant žalios mygtukų su juodo kryžiaus žemyn,; žalią mygtuką su brūkšneliu, jei norite nutolinti; arba žalių rodyklių gretimoms žemėlapius.


METAR-TAF: